sensor_id;sensor_type;location;lat;lon;timestamp;pressure;altitude;pressure_sealevel;temperature
70819;BMP280;58439;51.046;13.692;2022-08-01T00:01:25;99918.19;;;22.94
70819;BMP280;58439;51.046;13.692;2022-08-01T00:03:52;99919.00;;;22.95
70819;BMP280;58439;51.046;13.692;2022-08-01T00:06:19;99921.22;;;22.88
70819;BMP280;58439;51.046;13.692;2022-08-01T00:08:46;99909.28;;;22.80
70819;BMP280;58439;51.046;13.692;2022-08-01T00:11:13;99904.00;;;22.75
70819;BMP280;58439;51.046;13.692;2022-08-01T00:13:40;99901.38;;;22.70
70819;BMP280;58439;51.046;13.692;2022-08-01T00:16:07;99895.53;;;22.68
70819;BMP280;58439;51.046;13.692;2022-08-01T00:18:34;99893.97;;;22.67
70819;BMP280;58439;51.046;13.692;2022-08-01T00:21:05;99893.13;;;22.66
70819;BMP280;58439;51.046;13.692;2022-08-01T00:23:35;99896.63;;;22.67
70819;BMP280;58439;51.046;13.692;2022-08-01T00:26:02;99893.44;;;22.65
70819;BMP280;58439;51.046;13.692;2022-08-01T00:28:29;99885.97;;;22.62
70819;BMP280;58439;51.046;13.692;2022-08-01T00:30:56;99887.38;;;22.59
70819;BMP280;58439;51.046;13.692;2022-08-01T00:33:24;99892.94;;;22.58
70819;BMP280;58439;51.046;13.692;2022-08-01T00:35:51;99895.38;;;22.54
70819;BMP280;58439;51.046;13.692;2022-08-01T00:38:18;99896.53;;;22.48
70819;BMP280;58439;51.046;13.692;2022-08-01T00:40:45;99895.03;;;22.37
70819;BMP280;58439;51.046;13.692;2022-08-01T00:43:12;99900.16;;;22.28
70819;BMP280;58439;51.046;13.692;2022-08-01T00:45:40;99901.81;;;22.19
70819;BMP280;58439;51.046;13.692;2022-08-01T00:48:07;99900.84;;;22.10
70819;BMP280;58439;51.046;13.692;2022-08-01T00:50:35;99900.38;;;21.98
70819;BMP280;58439;51.046;13.692;2022-08-01T00:53:02;99894.56;;;21.91
70819;BMP280;58439;51.046;13.692;2022-08-01T00:55:31;99895.16;;;21.82
70819;BMP280;58439;51.046;13.692;2022-08-01T00:57:58;99901.31;;;21.78
70819;BMP280;58439;51.046;13.692;2022-08-01T01:00:33;99891.47;;;21.73
70819;BMP280;58439;51.046;13.692;2022-08-01T01:03:21;99898.66;;;21.68
70819;BMP280;58439;51.046;13.692;2022-08-01T01:06:26;99890.47;;;21.59
70819;BMP280;58439;51.046;13.692;2022-08-01T01:09:32;99892.38;;;21.53
70819;BMP280;58439;51.046;13.692;2022-08-01T01:12:22;99892.16;;;21.45
70819;BMP280;58439;51.046;13.692;2022-08-01T01:15:22;99893.78;;;21.41
70819;BMP280;58439;51.046;13.692;2022-08-01T01:18:07;99889.25;;;21.41
70819;BMP280;58439;51.046;13.692;2022-08-01T01:20:40;99895.63;;;21.45
70819;BMP280;58439;51.046;13.692;2022-08-01T01:29:11;99890.16;;;21.71
70819;BMP280;58439;51.046;13.692;2022-08-01T01:31:55;99884.28;;;21.74
70819;BMP280;58439;51.046;13.692;2022-08-01T01:34:27;99884.25;;;21.79
70819;BMP280;58439;51.046;13.692;2022-08-01T01:36:58;99878.13;;;21.78
70819;BMP280;58439;51.046;13.692;2022-08-01T01:39:29;99872.84;;;21.73
70819;BMP280;58439;51.046;13.692;2022-08-01T01:41:58;99875.25;;;21.70
70819;BMP280;58439;51.046;13.692;2022-08-01T01:44:27;99872.91;;;21.63
70819;BMP280;58439;51.046;13.692;2022-08-01T01:46:57;99876.91;;;21.61
70819;BMP280;58439;51.046;13.692;2022-08-01T01:49:28;99870.53;;;21.57
70819;BMP280;58439;51.046;13.692;2022-08-01T01:51:58;99872.44;;;21.51
70819;BMP280;58439;51.046;13.692;2022-08-01T01:54:42;99864.22;;;21.42
70819;BMP280;58439;51.046;13.692;2022-08-01T01:57:13;99868.75;;;21.42
70819;BMP280;58439;51.046;13.692;2022-08-01T01:59:41;99873.00;;;21.43
70819;BMP280;58439;51.046;13.692;2022-08-01T02:02:11;99871.38;;;21.47
70819;BMP280;58439;51.046;13.692;2022-08-01T02:04:45;99872.38;;;21.56
70819;BMP280;58439;51.046;13.692;2022-08-01T02:07:24;99874.75;;;21.63
70819;BMP280;58439;51.046;13.692;2022-08-01T02:09:54;99876.06;;;21.70
70819;BMP280;58439;51.046;13.692;2022-08-01T02:12:22;99876.53;;;21.77
70819;BMP280;58439;51.046;13.692;2022-08-01T02:14:53;99878.63;;;21.85
70819;BMP280;58439;51.046;13.692;2022-08-01T02:17:23;99879.41;;;21.86
70819;BMP280;58439;51.046;13.692;2022-08-01T02:19:53;99879.41;;;21.86
70819;BMP280;58439;51.046;13.692;2022-08-01T02:22:36;99881.25;;;21.91
70819;BMP280;58439;51.046;13.692;2022-08-01T02:25:28;99884.09;;;21.99
70819;BMP280;58439;51.046;13.692;2022-08-01T02:28:04;99880.41;;;21.95
70819;BMP280;58439;51.046;13.692;2022-08-01T02:30:35;99879.66;;;21.90
70819;BMP280;58439;51.046;13.692;2022-08-01T02:33:12;99892.50;;;21.82
70819;BMP280;58439;51.046;13.692;2022-08-01T02:35:47;99893.56;;;21.81
70819;BMP280;58439;51.046;13.692;2022-08-01T02:38:41;99894.84;;;21.89
70819;BMP280;58439;51.046;13.692;2022-08-01T02:41:15;99903.31;;;21.91
70819;BMP280;58439;51.046;13.692;2022-08-01T02:43:53;99903.31;;;21.96
70819;BMP280;58439;51.046;13.692;2022-08-01T02:46:35;99904.38;;;22.00
70819;BMP280;58439;51.046;13.692;2022-08-01T02:49:06;99905.97;;;22.01
70819;BMP280;58439;51.046;13.692;2022-08-01T02:51:36;99903.09;;;21.93
70819;BMP280;58439;51.046;13.692;2022-08-01T02:54:07;99895.44;;;21.81
70819;BMP280;58439;51.046;13.692;2022-08-01T02:56:35;99896.25;;;21.76
70819;BMP280;58439;51.046;13.692;2022-08-01T02:59:15;99886.16;;;21.73
70819;BMP280;58439;51.046;13.692;2022-08-01T03:01:49;99880.81;;;21.73
70819;BMP280;58439;51.046;13.692;2022-08-01T03:04:18;99889.31;;;21.75
70819;BMP280;58439;51.046;13.692;2022-08-01T03:06:47;99884.28;;;21.74
70819;BMP280;58439;51.046;13.692;2022-08-01T03:09:16;99890.97;;;21.71
70819;BMP280;58439;51.046;13.692;2022-08-01T03:11:45;99887.78;;;21.64
70819;BMP280;58439;51.046;13.692;2022-08-01T03:14:15;99890.47;;;21.59
70819;BMP280;58439;51.046;13.692;2022-08-01T03:16:46;99903.28;;;21.52
70819;BMP280;58439;51.046;13.692;2022-08-01T03:19:15;99900.13;;;21.50
70819;BMP280;58439;51.046;13.692;2022-08-01T03:21:44;99900.13;;;21.50
70819;BMP280;58439;51.046;13.692;2022-08-01T03:24:13;99895.34;;;21.47
70819;BMP280;58439;51.046;13.692;2022-08-01T03:26:42;99896.41;;;21.46
70819;BMP280;58439;51.046;13.692;2022-08-01T03:29:20;99895.34;;;21.47
70819;BMP280;58439;51.046;13.692;2022-08-01T03:31:49;99900.38;;;21.48
70819;BMP280;58439;51.046;13.692;2022-08-01T03:34:18;99898.78;;;21.47
70819;BMP280;58439;51.046;13.692;2022-08-01T03:37:12;99896.91;;;21.48
70819;BMP280;58439;51.046;13.692;2022-08-01T03:39:50;99898.78;;;21.47
70819;BMP280;58439;51.046;13.692;2022-08-01T03:42:24;99900.94;;;21.45
70819;BMP280;58439;51.046;13.692;2022-08-01T03:45:04;99904.88;;;21.48
70819;BMP280;58439;51.046;13.692;2022-08-01T03:47:52;99898.50;;;21.54
70819;BMP280;58439;51.046;13.692;2022-08-01T03:50:31;99899.81;;;21.62
70819;BMP280;58439;51.046;13.692;2022-08-01T03:53:12;99898.72;;;21.63
70819;BMP280;58439;51.046;13.692;2022-08-01T03:55:58;99905.13;;;21.62
70819;BMP280;58439;51.046;13.692;2022-08-01T03:58:50;99905.09;;;21.67
70819;BMP280;58439;51.046;13.692;2022-08-01T04:01:21;99900.28;;;21.69
70819;BMP280;58439;51.046;13.692;2022-08-01T04:03:55;99902.38;;;21.72
70819;BMP280;58439;51.046;13.692;2022-08-01T04:06:23;99906.09;;;21.76
70819;BMP280;58439;51.046;13.692;2022-08-01T04:08:51;99899.97;;;21.75
70819;BMP280;58439;51.046;13.692;2022-08-01T04:11:27;99909.56;;;21.76
70819;BMP280;58439;51.046;13.692;2022-08-01T04:13:55;99909.56;;;21.76
70819;BMP280;58439;51.046;13.692;2022-08-01T04:16:27;99913.28;;;21.75
70819;BMP280;58439;51.046;13.692;2022-08-01T04:18:56;99909.84;;;21.75
70819;BMP280;58439;51.046;13.692;2022-08-01T04:21:29;99923.44;;;21.73
70819;BMP280;58439;51.046;13.692;2022-08-01T04:24:15;99928.50;;;21.70
70819;BMP280;58439;51.046;13.692;2022-08-01T04:26:47;99926.13;;;21.68
70819;BMP280;58439;51.046;13.692;2022-08-01T04:29:19;99924.25;;;21.69
70819;BMP280;58439;51.046;13.692;2022-08-01T04:31:49;99923.22;;;21.65
70819;BMP280;58439;51.046;13.692;2022-08-01T04:34:22;99924.25;;;21.64
70819;BMP280;58439;51.046;13.692;2022-08-01T04:36:51;99941.31;;;21.63
70819;BMP280;58439;51.046;13.692;2022-08-01T04:39:23;99929.38;;;21.55
70819;BMP280;58439;51.046;13.692;2022-08-01T04:41:51;99933.38;;;21.52
70819;BMP280;58439;51.046;13.692;2022-08-01T04:44:18;99943.78;;;21.49
70819;BMP280;58439;51.046;13.692;2022-08-01T04:46:46;99936.06;;;21.52
70819;BMP280;58439;51.046;13.692;2022-08-01T04:49:16;99933.38;;;21.52
70819;BMP280;58439;51.046;13.692;2022-08-01T04:51:55;99933.59;;;21.56
70819;BMP280;58439;51.046;13.692;2022-08-01T04:54:27;99942.91;;;21.69
70819;BMP280;58439;51.046;13.692;2022-08-01T04:56:57;99944.75;;;21.68
70819;BMP280;58439;51.046;13.692;2022-08-01T04:59:27;99937.19;;;21.91
70819;BMP280;58439;51.046;13.692;2022-08-01T05:02:17;99932.56;;;22.06
70819;BMP280;58439;51.046;13.692;2022-08-01T05:04:46;99934.91;;;22.13
70819;BMP280;58439;51.046;13.692;2022-08-01T05:07:14;99933.00;;;22.18
70819;BMP280;58439;51.046;13.692;2022-08-01T05:09:54;99936.53;;;22.09
70819;BMP280;58439;51.046;13.692;2022-08-01T05:12:36;99945.63;;;22.03
70819;BMP280;58439;51.046;13.692;2022-08-01T05:15:18;99945.69;;;21.93
70819;BMP280;58439;51.046;13.692;2022-08-01T05:17:46;99944.38;;;21.90
70819;BMP280;58439;51.046;13.692;2022-08-01T05:20:13;99965.38;;;21.97
70819;BMP280;58439;51.046;13.692;2022-08-01T05:22:41;99961.00;;;22.11
70819;BMP280;58439;51.046;13.692;2022-08-01T05:25:09;99958.59;;;22.19
70819;BMP280;58439;51.046;13.692;2022-08-01T05:27:38;99955.66;;;22.21
70819;BMP280;58439;51.046;13.692;2022-08-01T05:30:09;99964.66;;;22.30
70819;BMP280;58439;51.046;13.692;2022-08-01T05:32:37;99956.53;;;22.45
70819;BMP280;58439;51.046;13.692;2022-08-01T05:35:05;99953.16;;;22.69
70819;BMP280;58439;51.046;13.692;2022-08-01T05:37:32;99961.63;;;22.76
70819;BMP280;58439;51.046;13.692;2022-08-01T05:40:00;99952.47;;;22.82
70819;BMP280;58439;51.046;13.692;2022-08-01T05:42:33;99964.00;;;23.01
70819;BMP280;58439;51.046;13.692;2022-08-01T05:45:07;99953.34;;;23.01
70819;BMP280;58439;51.046;13.692;2022-08-01T05:48:14;99958.16;;;22.99
70819;BMP280;58439;51.046;13.692;2022-08-01T05:51:05;99950.16;;;22.99
70819;BMP280;58439;51.046;13.692;2022-08-01T05:54:24;99954.81;;;23.12
70819;BMP280;58439;51.046;13.692;2022-08-01T05:57:39;99964.94;;;23.15
70819;BMP280;58439;51.046;13.692;2022-08-01T06:00:21;99965.50;;;23.12
70819;BMP280;58439;51.046;13.692;2022-08-01T06:03:08;99965.94;;;22.96
70819;BMP280;58439;51.046;13.692;2022-08-01T06:05:59;99972.69;;;22.88
70819;BMP280;58439;51.046;13.692;2022-08-01T06:09:11;99970.53;;;22.90
70819;BMP280;58439;51.046;13.692;2022-08-01T06:11:57;99975.59;;;22.92
70819;BMP280;58439;51.046;13.692;2022-08-01T06:15:15;99977.88;;;23.03
70819;BMP280;58439;51.046;13.692;2022-08-01T06:18:00;99980.50;;;23.08
70819;BMP280;58439;51.046;13.692;2022-08-01T06:20:47;99986.16;;;23.02
70819;BMP280;58439;51.046;13.692;2022-08-01T06:23:38;99991.13;;;23.13
70819;BMP280;58439;51.046;13.692;2022-08-01T06:26:13;99986.44;;;23.00
70819;BMP280;58439;51.046;13.692;2022-08-01T06:28:40;99990.13;;;23.04
70819;BMP280;58439;51.046;13.692;2022-08-01T06:31:08;99990.88;;;23.10
70819;BMP280;58439;51.046;13.692;2022-08-01T06:33:40;99997.66;;;23.02
70819;BMP280;58439;51.046;13.692;2022-08-01T06:36:17;100000.63;;;22.96
70819;BMP280;58439;51.046;13.692;2022-08-01T06:38:55;100009.19;;;22.93
70819;BMP280;58439;51.046;13.692;2022-08-01T06:41:33;100016.13;;;22.94
70819;BMP280;58439;51.046;13.692;2022-08-01T06:44:04;100015.72;;;23.10
70819;BMP280;58439;51.046;13.692;2022-08-01T06:46:34;100010.50;;;23.24
70819;BMP280;58439;51.046;13.692;2022-08-01T06:49:15;100023.22;;;22.40
70819;BMP280;58439;51.046;13.692;2022-08-01T06:51:51;100029.41;;;21.76
70819;BMP280;58439;51.046;13.692;2022-08-01T06:54:26;100022.28;;;21.57
70819;BMP280;58439;51.046;13.692;2022-08-01T06:57:05;100026.78;;;21.56
70819;BMP280;58439;51.046;13.692;2022-08-01T06:59:35;100033.22;;;21.55
70819;BMP280;58439;51.046;13.692;2022-08-01T07:02:14;100033.00;;;21.21
70819;BMP280;58439;51.046;13.692;2022-08-01T07:04:44;100027.69;;;20.60
70819;BMP280;58439;51.046;13.692;2022-08-01T07:07:22;100025.44;;;20.16
70819;BMP280;58439;51.046;13.692;2022-08-01T07:09:58;100028.28;;;20.00
70819;BMP280;58439;51.046;13.692;2022-08-01T07:12:32;100034.09;;;19.97
70819;BMP280;58439;51.046;13.692;2022-08-01T07:15:00;100031.25;;;20.08
70819;BMP280;58439;51.046;13.692;2022-08-01T07:17:55;100034.78;;;20.34
70819;BMP280;58439;51.046;13.692;2022-08-01T07:20:41;100036.72;;;20.64
70819;BMP280;58439;51.046;13.692;2022-08-01T07:23:27;100039.66;;;20.98
70819;BMP280;58439;51.046;13.692;2022-08-01T07:26:10;100042.06;;;21.10
70819;BMP280;58439;51.046;13.692;2022-08-01T07:28:51;100041.25;;;20.99
70819;BMP280;58439;51.046;13.692;2022-08-01T07:31:28;100037.00;;;20.98
70819;BMP280;58439;51.046;13.692;2022-08-01T07:33:58;100037.00;;;20.98
70819;BMP280;58439;51.046;13.692;2022-08-01T07:36:25;100042.03;;;20.95
70819;BMP280;58439;51.046;13.692;2022-08-01T07:38:52;100036.44;;;21.06
70819;BMP280;58439;51.046;13.692;2022-08-01T07:41:19;100043.38;;;21.38
70819;BMP280;58439;51.046;13.692;2022-08-01T07:44:10;100037.09;;;21.83
70819;BMP280;58439;51.046;13.692;2022-08-01T07:46:47;100044.75;;;22.49
70819;BMP280;58439;51.046;13.692;2022-08-01T07:49:26;100032.94;;;22.94
70819;BMP280;58439;51.046;13.692;2022-08-01T07:52:13;100040.00;;;23.09
70819;BMP280;58439;51.046;13.692;2022-08-01T07:54:57;100036.69;;;23.46
70819;BMP280;58439;51.046;13.692;2022-08-01T07:57:29;100031.09;;;23.66
70819;BMP280;58439;51.046;13.692;2022-08-01T07:59:57;100032.69;;;23.67
70819;BMP280;58439;51.046;13.692;2022-08-01T08:02:24;100029.38;;;23.33
70819;BMP280;58439;51.046;13.692;2022-08-01T08:04:51;100031.16;;;23.13
70819;BMP280;58439;51.046;13.692;2022-08-01T08:07:22;100023.28;;;23.51
70819;BMP280;58439;51.046;13.692;2022-08-01T08:10:05;100035.03;;;23.74
70819;BMP280;58439;51.046;13.692;2022-08-01T08:12:50;100038.69;;;24.02
70819;BMP280;58439;51.046;13.692;2022-08-01T08:15:30;100035.00;;;23.98
70819;BMP280;58439;51.046;13.692;2022-08-01T08:18:08;100035.38;;;24.42
70819;BMP280;58439;51.046;13.692;2022-08-01T08:20:46;100028.41;;;25.06
70819;BMP280;58439;51.046;13.692;2022-08-01T08:23:24;100035.53;;;25.79
70819;BMP280;58439;51.046;13.692;2022-08-01T08:26:11;100030.59;;;26.31
70819;BMP280;58439;51.046;13.692;2022-08-01T08:28:41;100031.66;;;26.08
70819;BMP280;58439;51.046;13.692;2022-08-01T08:31:08;100038.28;;;25.88
70819;BMP280;58439;51.046;13.692;2022-08-01T08:33:56;100028.41;;;25.61
70819;BMP280;58439;51.046;13.692;2022-08-01T08:36:30;100027.34;;;25.07
70819;BMP280;58439;51.046;13.692;2022-08-01T08:39:06;100022.66;;;24.85
70819;BMP280;58439;51.046;13.692;2022-08-01T08:41:34;100028.81;;;25.13
70819;BMP280;58439;51.046;13.692;2022-08-01T08:44:11;100038.31;;;25.61
70819;BMP280;58439;51.046;13.692;2022-08-01T08:46:49;100030.66;;;26.17
70819;BMP280;58439;51.046;13.692;2022-08-01T08:49:25;100027.78;;;26.36
70819;BMP280;58439;51.046;13.692;2022-08-01T08:52:03;100028.88;;;26.58
70819;BMP280;58439;51.046;13.692;2022-08-01T08:54:37;100028.84;;;26.49
70819;BMP280;58439;51.046;13.692;2022-08-01T08:57:19;100023.97;;;26.60
70819;BMP280;58439;51.046;13.692;2022-08-01T09:00:03;100027.97;;;26.71
70819;BMP280;58439;51.046;13.692;2022-08-01T09:02:39;100033.47;;;26.97
70819;BMP280;58439;51.046;13.692;2022-08-01T09:09:56;100037.94;;;26.79
70819;BMP280;58439;51.046;13.692;2022-08-01T09:39:15;100039.81;;;26.39
70819;BMP280;58439;51.046;13.692;2022-08-01T09:47:15;100031.59;;;27.06
70819;BMP280;58439;51.046;13.692;2022-08-01T10:18:05;100033.47;;;28.14
70819;BMP280;58439;51.046;13.692;2022-08-01T10:22:47;100030.78;;;28.14
70819;BMP280;58439;51.046;13.692;2022-08-01T10:42:18;100058.28;;;25.68
70819;BMP280;58439;51.046;13.692;2022-08-01T10:51:53;100060.97;;;25.82
70819;BMP280;58439;51.046;13.692;2022-08-01T10:57:13;100056.81;;;26.56
70819;BMP280;58439;51.046;13.692;2022-08-01T11:21:23;100046.22;;;32.98
70819;BMP280;58439;51.046;13.692;2022-08-01T12:34:30;100054.56;;;37.64
70819;BMP280;58439;51.046;13.692;2022-08-01T12:39:03;100060.59;;;35.37
70819;BMP280;58439;51.046;13.692;2022-08-01T12:45:57;100047.13;;;38.18
70819;BMP280;58439;51.046;13.692;2022-08-01T12:49:55;100052.28;;;34.37
70819;BMP280;58439;51.046;13.692;2022-08-01T12:54:06;100050.19;;;32.37
70819;BMP280;58439;51.046;13.692;2022-08-01T13:08:16;100050.25;;;33.07
70819;BMP280;58439;51.046;13.692;2022-08-01T13:11:17;100045.34;;;35.66
70819;BMP280;58439;51.046;13.692;2022-08-01T14:50:41;100081.13;;;37.74
70819;BMP280;58439;51.046;13.692;2022-08-01T15:11:03;100084.78;;;35.42
70819;BMP280;58439;51.046;13.692;2022-08-01T15:15:41;100088.19;;;34.76
70819;BMP280;58439;51.046;13.692;2022-08-01T15:46:18;100097.81;;;34.20
70819;BMP280;58439;51.046;13.692;2022-08-01T15:59:15;100098.34;;;32.28
70819;BMP280;58439;51.046;13.692;2022-08-01T16:07:17;100099.94;;;34.08
70819;BMP280;58439;51.046;13.692;2022-08-01T16:10:41;100102.38;;;32.66
70819;BMP280;58439;51.046;13.692;2022-08-01T16:15:01;100105.81;;;30.99
70819;BMP280;58439;51.046;13.692;2022-08-01T16:19:59;100097.34;;;29.86
70819;BMP280;58439;51.046;13.692;2022-08-01T16:29:02;100096.13;;;32.18
70819;BMP280;58439;51.046;13.692;2022-08-01T16:32:24;100093.25;;;33.44
70819;BMP280;58439;51.046;13.692;2022-08-01T16:55:23;100095.13;;;32.54
70819;BMP280;58439;51.046;13.692;2022-08-01T16:59:44;100100.06;;;32.99
70819;BMP280;58439;51.046;13.692;2022-08-01T17:20:39;100100.78;;;29.24
70819;BMP280;58439;51.046;13.692;2022-08-01T18:00:30;100135.66;;;26.91
70819;BMP280;58439;51.046;13.692;2022-08-01T18:03:47;100135.97;;;26.68
70819;BMP280;58439;51.046;13.692;2022-08-01T18:17:24;100146.28;;;26.16
70819;BMP280;58439;51.046;13.692;2022-08-01T18:25:51;100151.88;;;25.65
70819;BMP280;58439;51.046;13.692;2022-08-01T19:04:00;100186.91;;;23.62
70819;BMP280;58439;51.046;13.692;2022-08-01T19:07:46;100192.06;;;23.48
70819;BMP280;58439;51.046;13.692;2022-08-01T19:38:48;100238.00;;;22.72
70819;BMP280;58439;51.046;13.692;2022-08-01T19:43:21;100254.00;;;22.62
70819;BMP280;58439;51.046;13.692;2022-08-01T19:47:44;100251.38;;;22.46
70819;BMP280;58439;51.046;13.692;2022-08-01T20:05:14;100266.97;;;22.09
70819;BMP280;58439;51.046;13.692;2022-08-01T20:13:50;100276.78;;;22.03
70819;BMP280;58439;51.046;13.692;2022-08-01T20:16:23;100281.34;;;21.98
70819;BMP280;58439;51.046;13.692;2022-08-01T20:22:48;100287.75;;;21.76
70819;BMP280;58439;51.046;13.692;2022-08-01T20:26:08;100283.75;;;21.79
70819;BMP280;58439;51.046;13.692;2022-08-01T20:37:16;100290.41;;;21.76
70819;BMP280;58439;51.046;13.692;2022-08-01T20:40:07;100290.69;;;21.70
70819;BMP280;58439;51.046;13.692;2022-08-01T20:42:39;100292.28;;;21.66
70819;BMP280;58439;51.046;13.692;2022-08-01T20:45:10;100302.09;;;21.60
70819;BMP280;58439;51.046;13.692;2022-08-01T20:47:45;100304.25;;;21.58
70819;BMP280;58439;51.046;13.692;2022-08-01T20:50:13;100300.78;;;21.52
70819;BMP280;58439;51.046;13.692;2022-08-01T20:53:48;100294.09;;;21.45
70819;BMP280;58439;51.046;13.692;2022-08-01T20:56:35;100299.97;;;21.42
70819;BMP280;58439;51.046;13.692;2022-08-01T20:59:35;100302.34;;;21.38
70819;BMP280;58439;51.046;13.692;2022-08-01T21:03:06;100306.31;;;21.36
70819;BMP280;58439;51.046;13.692;2022-08-01T21:05:57;100301.75;;;21.31
70819;BMP280;58439;51.046;13.692;2022-08-01T21:08:41;100306.53;;;21.24
70819;BMP280;58439;51.046;13.692;2022-08-01T21:11:15;100303.59;;;21.20
70819;BMP280;58439;51.046;13.692;2022-08-01T21:14:49;100310.00;;;21.14
70819;BMP280;58439;51.046;13.692;2022-08-01T21:21:26;100307.81;;;21.06
70819;BMP280;58439;51.046;13.692;2022-08-01T21:24:40;100311.56;;;21.05
70819;BMP280;58439;51.046;13.692;2022-08-01T21:27:27;100310.44;;;20.96
70819;BMP280;58439;51.046;13.692;2022-08-01T21:30:11;100315.44;;;20.87
70819;BMP280;58439;51.046;13.692;2022-08-01T21:32:47;100320.47;;;20.84
70819;BMP280;58439;51.046;13.692;2022-08-01T21:35:24;100318.34;;;20.81
70819;BMP280;58439;51.046;13.692;2022-08-01T21:37:57;100319.41;;;20.80
70819;BMP280;58439;51.046;13.692;2022-08-01T21:40:36;100313.25;;;20.74
70819;BMP280;58439;51.046;13.692;2022-08-01T21:43:08;100321.50;;;20.73
70819;BMP280;58439;51.046;13.692;2022-08-01T21:46:15;100315.34;;;20.67
70819;BMP280;58439;51.046;13.692;2022-08-01T21:49:00;100319.06;;;20.66
70819;BMP280;58439;51.046;13.692;2022-08-01T21:51:52;100324.41;;;20.71
70819;BMP280;58439;51.046;13.692;2022-08-01T22:00:08;100328.88;;;20.66
70819;BMP280;58439;51.046;13.692;2022-08-01T22:06:14;100340.63;;;20.70
70819;BMP280;58439;51.046;13.692;2022-08-01T22:08:52;100339.03;;;20.69
70819;BMP280;58439;51.046;13.692;2022-08-01T22:11:31;100332.28;;;20.61
70819;BMP280;58439;51.046;13.692;2022-08-01T22:14:27;100334.84;;;20.46
70819;BMP280;58439;51.046;13.692;2022-08-01T22:17:23;100344.69;;;20.45
70819;BMP280;58439;51.046;13.692;2022-08-01T22:34:50;100356.94;;;20.46
70819;BMP280;58439;51.046;13.692;2022-08-01T22:39:27;100355.41;;;20.61
70819;BMP280;58439;51.046;13.692;2022-08-01T22:48:35;100351.97;;;20.55
70819;BMP280;58439;51.046;13.692;2022-08-01T22:54:13;100354.94;;;20.32
70819;BMP280;58439;51.046;13.692;2022-08-01T22:56:55;100368.97;;;20.22
70819;BMP280;58439;51.046;13.692;2022-08-01T22:59:52;100371.53;;;20.12
70819;BMP280;58439;51.046;13.692;2022-08-01T23:02:24;100368.28;;;20.10
70819;BMP280;58439;51.046;13.692;2022-08-01T23:05:05;100370.19;;;20.14
70819;BMP280;58439;51.046;13.692;2022-08-01T23:07:55;100370.78;;;20.16
70819;BMP280;58439;51.046;13.692;2022-08-01T23:10:39;100375.00;;;20.12
70819;BMP280;58439;51.046;13.692;2022-08-01T23:13:14;100374.16;;;20.07
70819;BMP280;58439;51.046;13.692;2022-08-01T23:15:48;100369.84;;;20.01
70819;BMP280;58439;51.046;13.692;2022-08-01T23:18:33;100375.03;;;19.90
70819;BMP280;58439;51.046;13.692;2022-08-01T23:21:20;100370.38;;;19.76
70819;BMP280;58439;51.046;13.692;2022-08-01T23:28:45;100371.47;;;19.58
70819;BMP280;58439;51.046;13.692;2022-08-01T23:32:46;100373.78;;;19.49
70819;BMP280;58439;51.046;13.692;2022-08-01T23:36:45;100376.97;;;19.51
70819;BMP280;58439;51.046;13.692;2022-08-01T23:41:10;100368.59;;;19.59
70819;BMP280;58439;51.046;13.692;2022-08-01T23:45:38;100370.66;;;19.79
70819;BMP280;58439;51.046;13.692;2022-08-01T23:53:07;100377.94;;;20.16
70819;BMP280;58439;51.046;13.692;2022-08-01T23:56:19;100374.81;;;20.24
70819;BMP280;58439;51.046;13.692;2022-08-01T23:59:41;100350.63;;;20.20
